Time;durP1;ratioP1;P1;durP2;ratioP2;P2;SDS_P1;SDS_P2;PMS_P1;PMS_P2;Temp;Humidity;BMP_temperature;BMP_pressure;BME280_temperature;BME280_humidity;BME280_pressure;Samples;Min_cycle;Max_cycle;Signal;HPM_P1;HPM_P2
2022/04/30 00:00:57;;;;;;;;;;;21.50;38.00;;;;;;476870;248;1081;-39
2022/04/30 00:02:58;;;;;;;;;;;21.60;38.00;;;;;;476878;248;1228;-39
2022/04/30 00:04:59;;;;;;;;;;;21.50;38.00;;;;;;476842;248;1074;-39
2022/04/30 00:07:01;;;;;;;;;;;21.50;37.90;;;;;;476856;248;1248;-39
2022/04/30 00:09:02;;;;;;;;;;;21.50;38.00;;;;;;476844;248;1347;-39
2022/04/30 00:11:03;;;;;;;;;;;21.60;38.00;;;;;;476749;248;2176;-39
2022/04/30 00:13:05;;;;;;;;;;;21.50;38.00;;;;;;476450;248;1235;-39
2022/04/30 00:15:06;;;;;;;;;;;21.50;38.00;;;;;;476907;249;2394;-39
2022/04/30 00:17:07;;;;;;;;;;;21.50;38.00;;;;;;476825;248;1195;-39
2022/04/30 00:19:09;;;;;;;;;;;21.60;38.10;;;;;;476435;248;1128;-39
2022/04/30 00:21:10;;;;;;;;;;;21.50;38.00;;;;;;476865;249;1106;-39
2022/04/30 00:23:19;;;;;;;;;;;21.50;38.00;;;;;;476842;248;1177;-39
2022/04/30 00:25:14;;;;;;;;;;;21.60;38.00;;;;;;476085;250;2309;-39
2022/04/30 00:27:15;;;;;;;;;;;21.50;37.90;;;;;;476503;248;2393;-39
2022/04/30 00:29:16;;;;;;;;;;;21.60;38.00;;;;;;476898;248;2252;-39
2022/04/30 00:31:17;;;;;;;;;;;21.50;37.90;;;;;;476484;248;2195;-39
2022/04/30 00:33:18;;;;;;;;;;;21.60;38.00;;;;;;476801;249;1075;-39
2022/04/30 00:35:20;;;;;;;;;;;21.50;38.00;;;;;;477142;248;1068;-39
2022/04/30 00:37:21;;;;;;;;;;;21.50;38.00;;;;;;476844;248;2212;-39
2022/04/30 00:39:22;;;;;;;;;;;21.50;38.00;;;;;;476930;248;1076;-39
2022/04/30 00:41:23;;;;;;;;;;;21.50;38.00;;;;;;476415;248;1322;-39
2022/04/30 00:43:25;;;;;;;;;;;21.60;38.10;;;;;;476914;248;1048;-39
2022/04/30 00:45:26;;;;;;;;;;;21.50;38.10;;;;;;476617;248;1016;-39
2022/04/30 00:47:27;;;;;;;;;;;21.50;38.00;;;;;;476904;248;1060;-39
2022/04/30 00:49:29;;;;;;;;;;;21.50;38.10;;;;;;476813;248;1099;-39
2022/04/30 00:51:30;;;;;;;;;;;21.50;38.10;;;;;;476801;248;2113;-39
2022/04/30 00:53:31;;;;;;;;;;;21.60;38.00;;;;;;476877;248;1194;-39
2022/04/30 00:55:33;;;;;;;;;;;21.60;38.10;;;;;;476419;248;1114;-39
2022/04/30 00:57:34;;;;;;;;;;;21.50;38.00;;;;;;476385;248;1255;-39
2022/04/30 00:59:35;;;;;;;;;;;21.50;38.00;;;;;;476494;248;1085;-39
2022/04/30 01:01:37;;;;;;;;;;;21.60;38.00;;;;;;476599;248;1114;-39
2022/04/30 01:03:38;;;;;;;;;;;21.60;38.00;;;;;;476830;248;2362;-39
2022/04/30 01:05:39;;;;;;;;;;;21.60;38.00;;;;;;476859;248;1550;-39
2022/04/30 01:07:41;;;;;;;;;;;21.60;38.00;;;;;;476312;248;1087;-39
2022/04/30 01:09:42;;;;;;;;;;;21.60;38.00;;;;;;476873;248;1057;-39
2022/04/30 01:11:43;;;;;;;;;;;21.60;38.10;;;;;;476517;248;2128;-39
2022/04/30 01:13:44;;;;;;;;;;;21.50;38.10;;;;;;476838;248;1250;-39
2022/04/30 01:15:46;;;;;;;;;;;21.50;38.10;;;;;;476823;248;1120;-39
2022/04/30 01:17:47;;;;;;;;;;;21.50;38.00;;;;;;476612;248;984;-39
2022/04/30 01:19:48;;;;;;;;;;;21.60;38.10;;;;;;476868;248;1069;-39
2022/04/30 01:21:50;;;;;;;;;;;21.50;38.10;;;;;;476346;248;1207;-39
2022/04/30 01:23:51;;;;;;;;;;;21.50;38.10;;;;;;476828;248;1269;-39
2022/04/30 01:25:53;;;;;;;;;;;21.50;38.10;;;;;;476338;248;1450;-39
2022/04/30 01:27:54;;;;;;;;;;;21.50;38.10;;;;;;476575;249;1183;-39
2022/04/30 01:29:55;;;;;;;;;;;21.60;38.10;;;;;;476888;248;1079;-39
2022/04/30 01:38:56;;;;;;;;;;;21.50;38.10;;;;;;476477;249;1063;-39
2022/04/30 01:40:56;;;;;;;;;;;21.50;38.20;;;;;;476377;248;2116;-39
2022/04/30 01:42:59;;;;;;;;;;;21.50;38.20;;;;;;476588;248;1189;-39
2022/04/30 01:44:59;;;;;;;;;;;21.50;38.20;;;;;;476445;248;2247;-39
2022/04/30 01:47:00;;;;;;;;;;;21.50;38.20;;;;;;476874;248;1150;-39
2022/04/30 01:49:02;;;;;;;;;;;21.50;38.20;;;;;;476854;248;1082;-39
2022/04/30 01:51:03;;;;;;;;;;;21.50;38.20;;;;;;476390;249;2268;-39
2022/04/30 01:53:04;;;;;;;;;;;21.50;38.20;;;;;;476810;248;2125;-39
2022/04/30 01:55:05;;;;;;;;;;;21.50;38.20;;;;;;476430;248;1111;-39
2022/04/30 01:57:07;;;;;;;;;;;21.50;38.20;;;;;;476364;248;1266;-39
2022/04/30 01:59:08;;;;;;;;;;;21.50;38.20;;;;;;476492;248;1262;-39
2022/04/30 02:01:10;;;;;;;;;;;21.50;38.20;;;;;;476593;248;1322;-39
2022/04/30 02:03:12;;;;;;;;;;;21.50;38.20;;;;;;476445;249;1902;-39
2022/04/30 02:05:13;;;;;;;;;;;21.50;38.20;;;;;;476838;249;1368;-39
2022/04/30 02:07:13;;;;;;;;;;;21.50;38.20;;;;;;476787;250;2428;-39
2022/04/30 02:09:15;;;;;;;;;;;21.50;38.10;;;;;;476718;248;1064;-39
2022/04/30 02:11:16;;;;;;;;;;;21.60;38.10;;;;;;476493;248;1064;-39
2022/04/30 02:13:17;;;;;;;;;;;21.50;38.10;;;;;;476483;248;2199;-39
2022/04/30 02:15:19;;;;;;;;;;;21.60;38.20;;;;;;476885;248;1064;-39
2022/04/30 02:17:20;;;;;;;;;;;21.60;38.20;;;;;;476444;248;1047;-39
2022/04/30 02:19:21;;;;;;;;;;;21.60;38.20;;;;;;476468;248;978;-39
2022/04/30 02:21:23;;;;;;;;;;;21.60;38.10;;;;;;476444;248;1039;-39
2022/04/30 02:23:24;;;;;;;;;;;21.50;38.10;;;;;;476504;248;1179;-39
2022/04/30 02:25:25;;;;;;;;;;;21.50;38.10;;;;;;476907;248;1248;-39
2022/04/30 02:27:27;;;;;;;;;;;21.50;38.20;;;;;;476589;248;1204;-39
2022/04/30 02:29:28;;;;;;;;;;;21.50;38.20;;;;;;476497;248;1258;-39
2022/04/30 02:31:29;;;;;;;;;;;21.60;38.20;;;;;;476663;248;1487;-39
2022/04/30 02:33:31;;;;;;;;;;;21.50;38.20;;;;;;476840;248;2128;-39
2022/04/30 02:35:33;;;;;;;;;;;21.50;38.30;;;;;;476658;248;1042;-39
2022/04/30 02:37:34;;;;;;;;;;;21.50;38.20;;;;;;476445;248;2351;-39
2022/04/30 02:39:35;;;;;;;;;;;21.50;38.20;;;;;;476443;248;1084;-39
2022/04/30 02:41:36;;;;;;;;;;;21.60;38.30;;;;;;476379;248;1132;-39
2022/04/30 02:43:38;;;;;;;;;;;21.50;38.20;;;;;;476480;248;1227;-39
2022/04/30 02:45:39;;;;;;;;;;;21.50;38.20;;;;;;476643;248;1122;-39
2022/04/30 02:47:40;;;;;;;;;;;21.50;38.40;;;;;;476865;249;1084;-39
2022/04/30 02:49:41;;;;;;;;;;;21.50;38.20;;;;;;476826;248;1238;-39
2022/04/30 02:51:43;;;;;;;;;;;21.50;38.20;;;;;;476546;249;1055;-39
2022/04/30 02:53:44;;;;;;;;;;;21.50;38.30;;;;;;476823;248;2184;-39
2022/04/30 02:55:45;;;;;;;;;;;21.50;38.30;;;;;;476813;248;1086;-39
2022/04/30 03:00:07;;;;;;;;;;;21.50;38.20;;;;;;476405;250;1612;-39
2022/04/30 03:02:09;;;;;;;;;;;21.50;38.20;;;;;;476685;249;1126;-39
2022/04/30 03:04:10;;;;;;;;;;;21.50;38.30;;;;;;476893;248;1048;-39
2022/04/30 03:06:13;;;;;;;;;;;21.50;38.30;;;;;;476745;249;1014;-39
2022/04/30 03:08:13;;;;;;;;;;;21.50;38.20;;;;;;476846;248;2160;-39
2022/04/30 03:10:14;;;;;;;;;;;21.60;38.30;;;;;;476885;248;1051;-39
2022/04/30 03:12:15;;;;;;;;;;;21.50;38.20;;;;;;476613;248;2191;-39
2022/04/30 03:14:16;;;;;;;;;;;21.50;38.20;;;;;;476489;248;1185;-40
2022/04/30 03:23:19;;;;;;;;;;;21.60;38.30;;;;;;476353;250;1442;-39
2022/04/30 03:25:21;;;;;;;;;;;21.50;38.30;;;;;;476893;248;1193;-39
2022/04/30 03:27:22;;;;;;;;;;;21.50;38.20;;;;;;476880;248;1201;-39
2022/04/30 03:29:23;;;;;;;;;;;21.60;38.30;;;;;;476705;248;1170;-39
2022/04/30 03:31:25;;;;;;;;;;;21.60;38.20;;;;;;476839;249;1082;-39
2022/04/30 03:33:26;;;;;;;;;;;21.50;38.20;;;;;;476851;248;2200;-39
2022/04/30 03:35:28;;;;;;;;;;;21.50;38.20;;;;;;476908;248;1071;-39
2022/04/30 03:37:29;;;;;;;;;;;21.50;38.20;;;;;;476605;249;2378;-39
2022/04/30 03:39:30;;;;;;;;;;;21.50;38.30;;;;;;476815;249;1068;-39
2022/04/30 03:41:31;;;;;;;;;;;21.60;38.30;;;;;;476490;248;1246;-39
2022/04/30 03:43:33;;;;;;;;;;;21.60;38.20;;;;;;476868;248;1076;-39
2022/04/30 03:45:34;;;;;;;;;;;21.60;38.20;;;;;;476525;248;1158;-39
2022/04/30 03:47:37;;;;;;;;;;;21.50;38.20;;;;;;476487;248;1156;-39
2022/04/30 03:49:37;;;;;;;;;;;21.50;38.20;;;;;;476803;249;2415;-39
2022/04/30 03:51:38;;;;;;;;;;;21.50;38.30;;;;;;476676;248;1384;-39
2022/04/30 03:53:40;;;;;;;;;;;21.50;38.30;;;;;;476874;248;2125;-39
2022/04/30 03:55:41;;;;;;;;;;;21.60;38.30;;;;;;476845;248;1073;-39
2022/04/30 03:57:43;;;;;;;;;;;21.50;38.30;;;;;;476833;248;1365;-39
2022/04/30 03:59:45;;;;;;;;;;;21.60;38.30;;;;;;476682;249;1297;-39
2022/04/30 04:01:45;;;;;;;;;;;21.60;38.30;;;;;;476792;248;2086;-39
2022/04/30 04:03:48;;;;;;;;;;;21.60;38.30;;;;;;476434;248;1070;-39
2022/04/30 04:05:48;;;;;;;;;;;21.60;38.30;;;;;;476779;249;2092;-39
2022/04/30 04:07:49;;;;;;;;;;;21.60;38.30;;;;;;476575;248;1024;-39
2022/04/30 04:09:51;;;;;;;;;;;21.60;38.20;;;;;;476835;248;1078;-39
2022/04/30 04:11:52;;;;;;;;;;;21.60;38.20;;;;;;476363;248;1275;-39
2022/04/30 04:18:32;;;;;;;;;;;21.60;38.20;;;;;;475408;250;1124;-39
2022/04/30 04:20:33;;;;;;;;;;;21.60;38.20;;;;;;475817;249;1228;-39
2022/04/30 04:22:34;;;;;;;;;;;21.60;38.20;;;;;;475414;249;1073;-39
2022/04/30 04:26:55;;;;;;;;;;;21.60;38.30;;;;;;475410;249;1263;-39
2022/04/30 04:28:57;;;;;;;;;;;21.60;38.30;;;;;;475730;249;1176;-39
2022/04/30 04:30:58;;;;;;;;;;;21.60;38.30;;;;;;475504;249;1186;-39
2022/04/30 04:32:59;;;;;;;;;;;21.60;38.20;;;;;;475526;249;2196;-39
2022/04/30 04:35:01;;;;;;;;;;;21.60;38.20;;;;;;475489;249;1054;-39
2022/04/30 04:37:02;;;;;;;;;;;21.70;38.20;;;;;;475637;249;999;-39
2022/04/30 04:39:03;;;;;;;;;;;21.60;38.20;;;;;;475443;249;1145;-39
2022/04/30 04:41:05;;;;;;;;;;;21.60;38.30;;;;;;475670;249;987;-39
2022/04/30 04:43:06;;;;;;;;;;;21.60;38.20;;;;;;475451;249;1099;-39
2022/04/30 04:45:07;;;;;;;;;;;21.60;38.30;;;;;;475734;249;1276;-39
2022/04/30 04:47:09;;;;;;;;;;;21.60;38.30;;;;;;475867;249;1105;-39
2022/04/30 04:49:10;;;;;;;;;;;21.60;38.40;;;;;;475879;249;1090;-39
2022/04/30 04:51:11;;;;;;;;;;;21.60;38.40;;;;;;475836;249;1219;-39
2022/04/30 04:53:13;;;;;;;;;;;21.60;38.30;;;;;;475844;249;2122;-39
2022/04/30 04:55:15;;;;;;;;;;;21.60;38.30;;;;;;475375;249;1055;-39
2022/04/30 04:57:15;;;;;;;;;;;21.60;38.20;;;;;;475776;249;2231;-39
2022/04/30 04:59:17;;;;;;;;;;;21.60;38.30;;;;;;475874;249;1058;-39
2022/04/30 05:01:18;;;;;;;;;;;21.50;38.40;;;;;;475554;249;1228;-39
2022/04/30 05:03:19;;;;;;;;;;;21.60;38.40;;;;;;475691;249;1053;-39
2022/04/30 05:05:21;;;;;;;;;;;21.60;38.40;;;;;;475482;249;1015;-39
2022/04/30 05:07:22;;;;;;;;;;;21.60;38.40;;;;;;475379;249;1202;-39
2022/04/30 05:09:24;;;;;;;;;;;21.60;38.40;;;;;;475895;249;1037;-39
2022/04/30 05:11:25;;;;;;;;;;;21.60;38.30;;;;;;479673;248;1295;-39
2022/04/30 05:13:26;;;;;;;;;;;21.50;38.30;;;;;;479703;247;2178;-39
2022/04/30 05:15:28;;;;;;;;;;;21.60;38.30;;;;;;479543;249;1143;-39
2022/04/30 05:17:29;;;;;;;;;;;21.60;38.30;;;;;;479223;249;1336;-39
2022/04/30 05:19:30;;;;;;;;;;;21.60;38.30;;;;;;479701;249;1054;-39
2022/04/30 05:21:32;;;;;;;;;;;21.60;38.30;;;;;;479460;249;1364;-39
2022/04/30 05:23:33;;;;;;;;;;;21.60;38.30;;;;;;479267;249;1146;-39
2022/04/30 05:25:36;;;;;;;;;;;21.60;38.30;;;;;;479770;248;1168;-39
2022/04/30 05:27:36;;;;;;;;;;;21.60;38.30;;;;;;479735;249;1105;-39
2022/04/30 05:29:38;;;;;;;;;;;21.60;38.30;;;;;;479575;248;987;-39
2022/04/30 05:31:39;;;;;;;;;;;21.60;38.30;;;;;;479291;248;1210;-39
2022/04/30 05:33:40;;;;;;;;;;;21.60;38.40;;;;;;479287;248;2198;-39
2022/04/30 05:35:42;;;;;;;;;;;21.60;38.40;;;;;;479293;249;1069;-39
2022/04/30 05:37:43;;;;;;;;;;;21.60;38.30;;;;;;479731;249;1066;-39
2022/04/30 05:39:44;;;;;;;;;;;21.60;38.40;;;;;;479761;248;1103;-39
2022/04/30 05:41:46;;;;;;;;;;;21.60;38.40;;;;;;479711;249;1052;-39
2022/04/30 05:43:48;;;;;;;;;;;21.60;38.40;;;;;;479326;249;1064;-39
2022/04/30 05:45:49;;;;;;;;;;;21.60;38.40;;;;;;479633;248;1287;-39
2022/04/30 05:47:50;;;;;;;;;;;21.60;38.40;;;;;;479832;248;1181;-39
2022/04/30 05:49:52;;;;;;;;;;;21.60;38.40;;;;;;479707;249;1049;-39
2022/04/30 05:51:53;;;;;;;;;;;21.60;38.30;;;;;;479584;249;1308;-39
2022/04/30 05:53:55;;;;;;;;;;;21.60;38.30;;;;;;479745;248;2158;-39
2022/04/30 05:55:56;;;;;;;;;;;21.60;38.40;;;;;;479411;248;1105;-39
2022/04/30 05:57:57;;;;;;;;;;;21.60;38.40;;;;;;479740;248;1342;-39
2022/04/30 05:59:59;;;;;;;;;;;21.60;38.40;;;;;;479290;249;1116;-39
2022/04/30 06:02:00;;;;;;;;;;;21.60;38.30;;;;;;479360;249;1160;-39
2022/04/30 06:04:02;;;;;;;;;;;21.60;38.40;;;;;;479288;248;1042;-39
2022/04/30 06:06:03;;;;;;;;;;;21.60;38.40;;;;;;479232;249;2269;-39
2022/04/30 06:08:04;;;;;;;;;;;21.60;38.40;;;;;;479332;249;1046;-39
2022/04/30 06:10:05;;;;;;;;;;;21.60;38.40;;;;;;479750;249;1014;-39
2022/04/30 06:12:07;;;;;;;;;;;21.60;38.40;;;;;;479257;249;1229;-39
2022/04/30 06:14:08;;;;;;;;;;;21.60;38.40;;;;;;479668;248;2126;-39
2022/04/30 06:16:09;;;;;;;;;;;21.60;38.40;;;;;;479537;248;1077;-39
2022/04/30 06:18:11;;;;;;;;;;;21.60;38.40;;;;;;479699;248;1058;-39
2022/04/30 06:20:12;;;;;;;;;;;21.60;38.40;;;;;;479721;249;977;-40
2022/04/30 06:22:13;;;;;;;;;;;21.60;38.50;;;;;;479639;249;1274;-39
2022/04/30 06:24:15;;;;;;;;;;;21.60;38.50;;;;;;479708;249;1083;-39
2022/04/30 06:26:16;;;;;;;;;;;21.60;38.40;;;;;;479281;249;1078;-39
2022/04/30 06:28:17;;;;;;;;;;;21.70;38.40;;;;;;479734;249;1069;-39
2022/04/30 06:30:19;;;;;;;;;;;21.60;38.30;;;;;;479293;248;1118;-39
2022/04/30 06:32:20;;;;;;;;;;;21.60;38.30;;;;;;479334;249;1207;-39
2022/04/30 06:34:21;;;;;;;;;;;21.60;38.40;;;;;;479683;248;2127;-39
2022/04/30 06:36:23;;;;;;;;;;;21.60;38.30;;;;;;479265;248;990;-39
2022/04/30 06:38:24;;;;;;;;;;;21.60;38.40;;;;;;479394;249;1070;-39
2022/04/30 06:40:26;;;;;;;;;;;21.60;38.50;;;;;;479350;249;1151;-39
2022/04/30 06:42:27;;;;;;;;;;;21.60;38.40;;;;;;479274;249;1195;-39
2022/04/30 06:44:28;;;;;;;;;;;21.60;38.50;;;;;;479310;249;1074;-39
2022/04/30 06:46:30;;;;;;;;;;;21.60;38.50;;;;;;479450;248;1276;-39
2022/04/30 06:48:31;;;;;;;;;;;21.50;38.50;;;;;;479707;249;1159;-39
2022/04/30 06:50:32;;;;;;;;;;;21.60;38.50;;;;;;479237;249;1049;-39
2022/04/30 06:52:34;;;;;;;;;;;21.60;38.50;;;;;;479601;249;1376;-39
2022/04/30 06:57:11;;;;;;;;;;;21.60;38.50;;;;;;479591;248;1210;-39
2022/04/30 06:59:12;;;;;;;;;;;21.60;38.50;;;;;;479244;248;2411;-39
2022/04/30 07:01:28;;;;;;;;;;;21.60;38.50;;;;;;479416;248;1228;-39
2022/04/30 07:03:27;;;;;;;;;;;21.60;38.50;;;;;;478958;248;2465;-39
2022/04/30 07:05:28;;;;;;;;;;;21.60;38.40;;;;;;479235;249;1977;-39
2022/04/30 07:07:29;;;;;;;;;;;21.70;38.40;;;;;;479495;249;1001;-39
2022/04/30 07:09:32;;;;;;;;;;;21.70;38.40;;;;;;479303;248;1055;-39
2022/04/30 07:11:32;;;;;;;;;;;21.60;38.40;;;;;;479252;248;2226;-39
2022/04/30 07:13:33;;;;;;;;;;;21.60;38.40;;;;;;479736;249;2202;-39
2022/04/30 07:15:34;;;;;;;;;;;21.60;38.40;;;;;;479707;249;1087;-39
2022/04/30 07:17:36;;;;;;;;;;;21.60;38.40;;;;;;479440;249;1208;-39
2022/04/30 07:19:37;;;;;;;;;;;21.60;38.40;;;;;;479187;249;1119;-39
2022/04/30 07:21:38;;;;;;;;;;;21.60;38.50;;;;;;479558;248;1129;-39
2022/04/30 07:23:40;;;;;;;;;;;21.60;38.50;;;;;;479717;248;1086;-39
2022/04/30 07:25:41;;;;;;;;;;;21.60;38.50;;;;;;479427;248;1073;-39
2022/04/30 07:27:42;;;;;;;;;;;21.50;38.50;;;;;;479707;248;1064;-39
2022/04/30 07:29:44;;;;;;;;;;;21.60;38.60;;;;;;479715;249;1016;-39
2022/04/30 07:31:45;;;;;;;;;;;21.60;38.50;;;;;;479541;249;1161;-39
2022/04/30 07:33:48;;;;;;;;;;;21.60;38.50;;;;;;479193;248;2199;-39
2022/04/30 07:35:49;;;;;;;;;;;21.60;38.50;;;;;;479265;249;1064;-39
2022/04/30 07:37:50;;;;;;;;;;;21.60;38.50;;;;;;479732;248;1080;-39
2022/04/30 07:39:51;;;;;;;;;;;21.60;38.50;;;;;;479745;248;1047;-39
2022/04/30 07:41:54;;;;;;;;;;;21.60;38.40;;;;;;479709;249;1143;-39
2022/04/30 07:43:54;;;;;;;;;;;21.60;38.50;;;;;;479595;248;2199;-39
2022/04/30 07:45:55;;;;;;;;;;;21.60;38.60;;;;;;479633;248;1044;-39
2022/04/30 07:47:57;;;;;;;;;;;21.50;38.60;;;;;;479388;248;1189;-39
2022/04/30 07:49:58;;;;;;;;;;;21.60;38.60;;;;;;479724;249;1029;-39
2022/04/30 07:51:59;;;;;;;;;;;21.60;38.50;;;;;;479308;249;1257;-39
2022/04/30 07:54:01;;;;;;;;;;;21.60;38.50;;;;;;479748;248;2194;-39
2022/04/30 07:56:02;;;;;;;;;;;21.60;38.50;;;;;;479179;249;1055;-39
2022/04/30 07:58:04;;;;;;;;;;;21.60;38.50;;;;;;479640;248;1018;-39
2022/04/30 08:00:06;;;;;;;;;;;21.60;38.50;;;;;;479341;248;1022;-39
2022/04/30 08:02:06;;;;;;;;;;;21.50;38.60;;;;;;479344;248;2480;-39
2022/04/30 08:04:08;;;;;;;;;;;21.60;38.60;;;;;;479481;249;1084;-39
2022/04/30 08:06:09;;;;;;;;;;;21.60;38.50;;;;;;479721;249;1046;-39
2022/04/30 08:08:10;;;;;;;;;;;21.60;38.60;;;;;;479725;248;1081;-39
2022/04/30 08:10:12;;;;;;;;;;;21.60;38.60;;;;;;479731;248;1084;-39
2022/04/30 08:12:13;;;;;;;;;;;21.60;38.70;;;;;;479486;249;1123;-39
2022/04/30 08:14:14;;;;;;;;;;;21.60;38.70;;;;;;479758;248;2199;-39
2022/04/30 08:16:16;;;;;;;;;;;21.60;38.70;;;;;;479697;248;1022;-39
2022/04/30 08:18:17;;;;;;;;;;;21.60;38.60;;;;;;479263;248;1140;-39
2022/04/30 08:20:18;;;;;;;;;;;21.60;38.50;;;;;;479525;248;1060;-39
2022/04/30 08:22:20;;;;;;;;;;;21.60;38.50;;;;;;479550;249;1199;-39
2022/04/30 08:24:21;;;;;;;;;;;21.60;38.60;;;;;;479731;249;1110;-39
2022/04/30 08:26:22;;;;;;;;;;;21.60;38.60;;;;;;479239;246;1211;-39
2022/04/30 08:28:24;;;;;;;;;;;21.60;38.60;;;;;;479720;249;1000;-39
2022/04/30 08:30:25;;;;;;;;;;;21.70;38.60;;;;;;479747;248;1055;-39
2022/04/30 08:32:26;;;;;;;;;;;21.60;38.60;;;;;;479677;248;1281;-39
2022/04/30 08:34:27;;;;;;;;;;;21.60;38.60;;;;;;479692;248;2122;-39
2022/04/30 08:36:29;;;;;;;;;;;21.60;38.60;;;;;;479182;249;1135;-39
2022/04/30 08:38:30;;;;;;;;;;;21.60;38.60;;;;;;479217;248;1088;-39
2022/04/30 08:40:31;;;;;;;;;;;21.60;38.70;;;;;;479243;249;975;-39
2022/04/30 08:42:33;;;;;;;;;;;21.60;38.70;;;;;;479106;249;1328;-39
2022/04/30 08:44:36;;;;;;;;;;;21.50;38.70;;;;;;479687;248;1020;-39
2022/04/30 08:46:36;;;;;;;;;;;21.60;38.60;;;;;;479586;248;2152;-39
2022/04/30 08:48:38;;;;;;;;;;;21.60;38.60;;;;;;479245;248;1197;-39
2022/04/30 08:50:39;;;;;;;;;;;21.60;38.60;;;;;;479560;248;1058;-39
2022/04/30 08:52:40;;;;;;;;;;;21.60;38.60;;;;;;479086;249;1247;-39
2022/04/30 08:54:42;;;;;;;;;;;21.60;38.60;;;;;;479410;249;2175;-39
2022/04/30 08:56:43;;;;;;;;;;;21.60;38.70;;;;;;479127;249;1345;-39
2022/04/30 08:58:44;;;;;;;;;;;21.60;38.70;;;;;;479667;248;1135;-39
2022/04/30 09:00:46;;;;;;;;;;;21.60;38.70;;;;;;479294;249;1048;-39
2022/04/30 09:02:47;;;;;;;;;;;21.60;38.70;;;;;;479263;249;1379;-39
2022/04/30 09:04:48;;;;;;;;;;;21.60;38.70;;;;;;479257;248;1140;-39
2022/04/30 09:06:49;;;;;;;;;;;21.60;38.60;;;;;;479585;246;1114;-39
2022/04/30 09:08:51;;;;;;;;;;;21.60;38.70;;;;;;479699;249;1041;-39
2022/04/30 09:10:52;;;;;;;;;;;21.60;38.70;;;;;;479712;248;1057;-39
2022/04/30 09:12:54;;;;;;;;;;;21.60;38.60;;;;;;479365;248;1158;-39
2022/04/30 09:14:55;;;;;;;;;;;21.60;38.60;;;;;;479746;248;2123;-39
2022/04/30 09:16:56;;;;;;;;;;;21.60;38.60;;;;;;479226;248;1667;-39
2022/04/30 09:18:57;;;;;;;;;;;21.60;38.70;;;;;;479253;249;1192;-39
2022/04/30 09:20:59;;;;;;;;;;;21.60;38.60;;;;;;479533;249;1305;-39
2022/04/30 09:23:00;;;;;;;;;;;21.60;38.70;;;;;;479474;248;1169;-39
2022/04/30 09:25:01;;;;;;;;;;;21.60;38.70;;;;;;479214;249;1076;-39
2022/04/30 09:27:03;;;;;;;;;;;21.60;38.60;;;;;;479209;249;1552;-39
2022/04/30 09:29:04;;;;;;;;;;;21.60;38.60;;;;;;479722;248;1055;-39
2022/04/30 09:31:06;;;;;;;;;;;21.60;38.60;;;;;;479652;248;1184;-39
2022/04/30 09:33:07;;;;;;;;;;;21.60;38.60;;;;;;479225;249;1299;-39
2022/04/30 09:37:43;;;;;;;;;;;21.60;38.70;;;;;;479176;248;1094;-39
2022/04/30 09:39:44;;;;;;;;;;;21.60;38.70;;;;;;479695;248;1241;-39
2022/04/30 09:41:46;;;;;;;;;;;21.60;38.70;;;;;;479631;249;1217;-39
2022/04/30 09:43:47;;;;;;;;;;;21.70;38.60;;;;;;479690;249;1084;-39
2022/04/30 09:45:48;;;;;;;;;;;21.60;38.70;;;;;;479225;249;1130;-39
2022/04/30 09:47:50;;;;;;;;;;;21.60;38.70;;;;;;479580;249;1196;-39
2022/04/30 09:54:30;;;;;;;;;;;21.60;38.70;;;;;;479477;248;2116;-39
2022/04/30 09:56:31;;;;;;;;;;;21.60;38.60;;;;;;479636;248;1056;-39
2022/04/30 09:58:32;;;;;;;;;;;21.60;38.70;;;;;;479709;248;1013;-39
2022/04/30 10:00:34;;;;;;;;;;;21.60;38.70;;;;;;479510;249;1033;-39
2022/04/30 10:02:37;;;;;;;;;;;21.60;38.70;;;;;;479667;249;1098;-39
2022/04/30 10:04:37;;;;;;;;;;;21.60;38.70;;;;;;479231;248;2128;-39
2022/04/30 10:06:39;;;;;;;;;;;21.60;38.70;;;;;;479302;248;1155;-39
2022/04/30 10:08:40;;;;;;;;;;;21.60;38.70;;;;;;479305;249;1079;-39
2022/04/30 10:10:41;;;;;;;;;;;21.60;38.70;;;;;;479683;249;1053;-39
2022/04/30 10:12:43;;;;;;;;;;;21.60;38.70;;;;;;479480;248;1216;-39
2022/04/30 10:14:44;;;;;;;;;;;21.60;38.70;;;;;;479714;248;2194;-39
2022/04/30 10:17:10;;;;;;;;;;;21.60;38.80;;;;;;479413;248;1144;-39
2022/04/30 10:18:54;;;;;;;;;;;21.60;38.80;;;;;;478200;248;2140;-39
2022/04/30 10:20:50;;;;;;;;;;;21.60;38.80;;;;;;479409;248;2254;-39
2022/04/30 10:22:51;;;;;;;;;;;21.60;38.70;;;;;;479298;249;1212;-39
2022/04/30 10:24:53;;;;;;;;;;;21.60;38.70;;;;;;479225;249;1070;-39
2022/04/30 10:26:54;;;;;;;;;;;21.60;38.70;;;;;;479509;248;1213;-39
2022/04/30 10:28:55;;;;;;;;;;;21.60;38.70;;;;;;479379;248;1248;-40
2022/04/30 10:30:57;;;;;;;;;;;21.60;38.70;;;;;;479418;249;1336;-39
2022/04/30 10:32:58;;;;;;;;;;;21.60;38.70;;;;;;479257;248;1292;-39
2022/04/30 10:35:00;;;;;;;;;;;21.60;38.70;;;;;;479249;248;2203;-39
2022/04/30 10:37:01;;;;;;;;;;;21.60;38.70;;;;;;479481;248;1012;-39
2022/04/30 10:39:06;;;;;;;;;;;21.60;38.70;;;;;;479671;248;1142;-39
2022/04/30 10:41:04;;;;;;;;;;;21.60;38.80;;;;;;478982;249;2175;-39
2022/04/30 10:43:05;;;;;;;;;;;21.60;38.80;;;;;;479689;248;1022;-39
2022/04/30 10:45:07;;;;;;;;;;;21.60;38.80;;;;;;479690;249;1075;-39
2022/04/30 10:47:08;;;;;;;;;;;21.60;38.70;;;;;;479299;248;1255;-39
2022/04/30 10:49:10;;;;;;;;;;;21.60;38.80;;;;;;479673;249;1295;-39
2022/04/30 10:51:11;;;;;;;;;;;21.50;38.70;;;;;;479638;249;1393;-39
2022/04/30 10:53:12;;;;;;;;;;;21.60;38.70;;;;;;479299;249;1011;-39
2022/04/30 10:55:13;;;;;;;;;;;21.60;38.70;;;;;;479682;249;2119;-39
2022/04/30 10:57:15;;;;;;;;;;;21.70;38.80;;;;;;479198;249;1146;-39
2022/04/30 10:59:16;;;;;;;;;;;21.60;38.70;;;;;;479319;249;1107;-39
2022/04/30 11:01:18;;;;;;;;;;;21.60;38.70;;;;;;479193;248;1169;-39
2022/04/30 11:03:19;;;;;;;;;;;21.60;38.70;;;;;;479251;249;1054;-39
2022/04/30 11:05:22;;;;;;;;;;;21.60;38.70;;;;;;479226;249;2232;-39
2022/04/30 11:07:22;;;;;;;;;;;21.60;38.70;;;;;;479189;248;2286;-39
2022/04/30 11:09:23;;;;;;;;;;;21.60;38.70;;;;;;479676;248;1055;-39
2022/04/30 11:11:25;;;;;;;;;;;21.60;38.70;;;;;;479594;248;1161;-39
2022/04/30 11:13:26;;;;;;;;;;;21.60;38.70;;;;;;479320;248;1092;-39
2022/04/30 11:15:27;;;;;;;;;;;21.60;38.70;;;;;;479223;248;2187;-39
2022/04/30 11:17:29;;;;;;;;;;;21.60;38.70;;;;;;479667;248;1074;-40
2022/04/30 11:19:30;;;;;;;;;;;21.60;38.80;;;;;;479451;247;1067;-39
2022/04/30 11:21:32;;;;;;;;;;;21.60;38.70;;;;;;480333;247;1050;-39
2022/04/30 11:23:33;;;;;;;;;;;21.60;38.70;;;;;;480598;247;1059;-39
2022/04/30 11:25:35;;;;;;;;;;;21.60;38.70;;;;;;480786;247;1065;-39
2022/04/30 11:27:36;;;;;;;;;;;21.60;38.70;;;;;;480271;247;1448;-39
2022/04/30 11:29:37;;;;;;;;;;;21.70;38.80;;;;;;480803;247;1059;-39
2022/04/30 11:31:38;;;;;;;;;;;21.60;38.70;;;;;;480639;247;983;-39
2022/04/30 11:33:40;;;;;;;;;;;21.70;38.80;;;;;;480330;247;1104;-39
2022/04/30 11:35:41;;;;;;;;;;;21.60;38.70;;;;;;480580;247;2134;-39
2022/04/30 11:37:42;;;;;;;;;;;21.60;38.70;;;;;;480352;247;1057;-39
2022/04/30 11:39:44;;;;;;;;;;;21.60;38.80;;;;;;480814;247;1029;-39
2022/04/30 11:41:45;;;;;;;;;;;21.60;38.80;;;;;;480775;247;1062;-39
2022/04/30 11:43:46;;;;;;;;;;;21.60;38.80;;;;;;480828;247;972;-39
2022/04/30 11:45:48;;;;;;;;;;;21.60;38.70;;;;;;480434;247;1020;-39
2022/04/30 11:47:49;;;;;;;;;;;21.70;38.80;;;;;;480267;247;1125;-39
2022/04/30 11:49:50;;;;;;;;;;;21.60;38.80;;;;;;480500;247;1071;-39
2022/04/30 11:51:52;;;;;;;;;;;21.60;38.70;;;;;;480329;247;1211;-39
2022/04/30 11:53:53;;;;;;;;;;;21.60;38.70;;;;;;480327;247;1072;-39
2022/04/30 11:55:54;;;;;;;;;;;21.60;38.70;;;;;;480266;247;2202;-39
2022/04/30 11:57:56;;;;;;;;;;;21.60;38.80;;;;;;480461;247;1094;-39
2022/04/30 11:59:57;;;;;;;;;;;21.60;38.80;;;;;;480381;247;1039;-39
2022/04/30 12:01:58;;;;;;;;;;;21.60;38.90;;;;;;480375;247;1118;-39
2022/04/30 12:04:00;;;;;;;;;;;21.60;38.80;;;;;;480696;247;1069;-39
2022/04/30 12:06:01;;;;;;;;;;;21.60;38.70;;;;;;480567;247;1274;-39
2022/04/30 12:08:03;;;;;;;;;;;21.60;38.80;;;;;;480755;247;1077;-39
2022/04/30 12:10:03;;;;;;;;;;;21.60;38.80;;;;;;480644;247;2281;-39
2022/04/30 12:12:05;;;;;;;;;;;21.60;38.80;;;;;;480288;247;1008;-39
2022/04/30 12:14:06;;;;;;;;;;;21.60;38.80;;;;;;480375;247;1066;-39
2022/04/30 12:16:07;;;;;;;;;;;21.60;38.80;;;;;;480766;247;2482;-39
2022/04/30 12:25:09;;;;;;;;;;;21.60;38.70;;;;;;479602;249;1200;-39
2022/04/30 12:27:10;;;;;;;;;;;21.70;38.80;;;;;;479318;249;2038;-39
2022/04/30 12:29:11;;;;;;;;;;;21.70;38.70;;;;;;479675;249;2375;-39
2022/04/30 12:31:12;;;;;;;;;;;21.70;38.80;;;;;;479685;249;1456;-39
2022/04/30 12:33:13;;;;;;;;;;;21.60;38.70;;;;;;479702;249;1102;-39
2022/04/30 12:35:15;;;;;;;;;;;21.60;38.80;;;;;;479670;249;2189;-39
2022/04/30 12:37:16;;;;;;;;;;;21.60;38.80;;;;;;479241;249;1287;-39